createdAt,value
2023-06-10T00:02:04.195Z,25.00
2023-06-10T00:04:38.257Z,18.45
2023-06-10T00:07:11.317Z,17.75
2023-06-10T00:09:44.698Z,21.88
2023-06-10T00:12:25.455Z,16.25
2023-06-10T00:15:00.746Z,18.42
2023-06-10T00:17:41.050Z,15.80
2023-06-10T00:20:17.441Z,15.88
2023-06-10T00:23:03.507Z,15.68
2023-06-10T00:25:34.654Z,17.48
2023-06-10T00:28:10.434Z,19.83
2023-06-10T00:30:45.570Z,17.02
2023-06-10T00:33:21.651Z,16.27
2023-06-10T00:35:54.141Z,15.43
2023-06-10T00:38:27.724Z,20.45
2023-06-10T00:41:05.287Z,16.15
2023-06-10T00:43:39.401Z,17.33
2023-06-10T00:46:16.487Z,15.18
2023-06-10T00:48:54.560Z,16.05
2023-06-10T00:51:30.758Z,16.75
2023-06-10T00:54:06.033Z,19.90
2023-06-10T00:56:38.755Z,19.05
2023-06-10T00:59:16.344Z,16.55
2023-06-10T01:01:52.334Z,17.77
2023-06-10T01:04:29.941Z,17.08
2023-06-10T01:07:27.944Z,18.05
2023-06-10T01:10:05.208Z,17.25
2023-06-10T01:12:52.149Z,17.30
2023-06-10T01:15:34.178Z,17.67
2023-06-10T01:18:11.251Z,16.30
2023-06-10T01:20:51.468Z,17.23
2023-06-10T01:23:32.656Z,19.27
2023-06-10T01:26:15.104Z,20.38
2023-06-10T01:28:56.380Z,18.33
2023-06-10T01:31:44.001Z,21.92
2023-06-10T01:34:23.214Z,19.50
2023-06-10T01:36:57.982Z,17.60
2023-06-10T01:39:34.144Z,25.38
2023-06-10T01:42:14.344Z,16.90
2023-06-10T01:44:44.680Z,21.75
2023-06-10T01:47:16.181Z,20.52
2023-06-10T01:49:49.019Z,19.50
2023-06-10T01:52:20.297Z,23.42
2023-06-10T01:55:04.453Z,23.17
2023-06-10T01:57:44.977Z,20.25
2023-06-10T02:00:22.565Z,20.67
2023-06-10T02:03:14.879Z,22.98
2023-06-10T02:05:50.870Z,25.58
2023-06-10T02:08:25.329Z,23.48
2023-06-10T02:11:01.769Z,19.02
2023-06-10T02:13:39.075Z,23.10
2023-06-10T02:16:14.497Z,25.95
2023-06-10T02:18:49.403Z,22.10
2023-06-10T02:21:22.173Z,26.83
2023-06-10T02:24:01.328Z,22.40
2023-06-10T02:26:38.548Z,22.90
2023-06-10T02:29:12.462Z,19.17
2023-06-10T02:31:50.867Z,26.65
2023-06-10T02:34:29.951Z,31.80
2023-06-10T02:37:11.912Z,23.77
2023-06-10T02:39:43.259Z,24.00
2023-06-10T02:42:25.401Z,23.35
2023-06-10T02:44:56.789Z,21.70
2023-06-10T02:47:46.911Z,22.15
2023-06-10T02:50:26.118Z,21.90
2023-06-10T02:53:18.666Z,24.73
2023-06-10T02:55:55.462Z,24.13
2023-06-10T02:58:33.537Z,22.42
2023-06-10T03:01:09.722Z,23.43
2023-06-10T03:03:52.453Z,21.90
2023-06-10T03:06:26.608Z,21.48
2023-06-10T03:09:09.137Z,26.50
2023-06-10T03:11:42.644Z,22.27
2023-06-10T03:14:15.733Z,25.10
2023-06-10T03:16:47.446Z,23.60
2023-06-10T03:19:19.813Z,24.20
2023-06-10T03:22:14.552Z,19.02
2023-06-10T03:24:54.791Z,26.50
2023-06-10T03:27:26.640Z,20.38
2023-06-10T03:30:04.558Z,23.50
2023-06-10T03:32:38.232Z,24.58
2023-06-10T03:35:16.229Z,24.27
2023-06-10T03:37:46.735Z,25.38
2023-06-10T03:40:17.459Z,23.77
2023-06-10T03:42:57.676Z,22.20
2023-06-10T03:45:37.719Z,23.80
2023-06-10T03:48:18.474Z,23.88
2023-06-10T03:51:02.211Z,17.60
2023-06-10T03:53:33.623Z,18.38
2023-06-10T03:56:09.649Z,13.65
2023-06-10T03:58:46.750Z,9.93
2023-06-10T04:01:24.633Z,13.10
2023-06-10T04:03:55.551Z,9.63
2023-06-10T04:06:36.169Z,8.93
2023-06-10T04:09:07.275Z,7.70
2023-06-10T04:11:39.973Z,6.70
2023-06-10T04:14:15.676Z,8.57
2023-06-10T04:16:57.647Z,5.65
2023-06-10T04:19:29.905Z,7.05
2023-06-10T04:22:12.737Z,5.18
2023-06-10T04:24:43.006Z,5.18
2023-06-10T04:27:19.919Z,5.43
2023-06-10T04:29:51.505Z,3.75
2023-06-10T04:32:30.405Z,4.80
2023-06-10T04:35:00.817Z,3.50
2023-06-10T04:37:36.986Z,5.80
2023-06-10T04:40:14.461Z,6.63
2023-06-10T04:42:55.387Z,3.40
2023-06-10T04:45:26.160Z,3.17
2023-06-10T04:48:08.114Z,2.60
2023-06-10T04:50:43.251Z,3.47
2023-06-10T04:53:16.673Z,3.00
2023-06-10T04:55:57.686Z,4.10
2023-06-10T04:58:30.395Z,3.80
2023-06-10T05:01:06.775Z,3.92
2023-06-10T05:03:42.131Z,6.57
2023-06-10T05:06:16.171Z,4.80
2023-06-10T05:08:50.936Z,4.78
2023-06-10T05:11:22.496Z,3.45
2023-06-10T05:13:53.448Z,3.65
2023-06-10T05:16:23.682Z,7.70
2023-06-10T05:18:56.994Z,6.50
2023-06-10T05:21:35.634Z,4.75
2023-06-10T05:24:14.301Z,4.32
2023-06-10T05:26:50.257Z,3.17
2023-06-10T05:29:22.964Z,3.33
2023-06-10T05:32:01.735Z,3.67
2023-06-10T05:34:39.726Z,2.97
2023-06-10T05:37:18.930Z,4.05
2023-06-10T05:39:49.511Z,3.10
2023-06-10T05:42:22.003Z,3.28
2023-06-10T05:44:54.768Z,3.38
2023-06-10T05:47:28.500Z,4.68
2023-06-10T05:50:22.175Z,3.92
2023-06-10T05:52:59.395Z,5.60
2023-06-10T05:55:36.602Z,3.97
2023-06-10T05:58:15.774Z,4.85
2023-06-10T06:00:53.871Z,4.63
2023-06-10T06:03:24.706Z,5.95
2023-06-10T06:06:04.977Z,5.43
2023-06-10T06:08:40.063Z,5.00
2023-06-10T06:11:23.757Z,6.68
2023-06-10T06:13:59.654Z,6.90
2023-06-10T06:16:30.871Z,3.80
2023-06-10T06:19:07.630Z,3.90
2023-06-10T06:21:43.666Z,5.03
2023-06-10T06:24:21.939Z,7.65
2023-06-10T06:26:52.411Z,6.32
2023-06-10T06:29:22.876Z,4.20
2023-06-10T06:31:55.757Z,4.97
2023-06-10T06:34:28.330Z,7.68
2023-06-10T06:37:01.166Z,5.03
2023-06-10T06:39:41.161Z,5.97
2023-06-10T06:42:16.251Z,6.25
2023-06-10T06:45:13.183Z,5.65
2023-06-10T06:47:49.375Z,3.50
2023-06-10T06:50:22.041Z,6.03
2023-06-10T06:52:57.960Z,9.40
2023-06-10T06:55:32.829Z,4.47
2023-06-10T06:58:11.889Z,4.95
2023-06-10T07:00:43.507Z,7.43
2023-06-10T07:03:19.046Z,9.43
2023-06-10T07:05:49.329Z,8.95
2023-06-10T07:08:22.728Z,8.80
2023-06-10T07:10:53.425Z,7.57
2023-06-10T07:16:11.099Z,4.50
2023-06-10T07:18:43.575Z,7.50
2023-06-10T07:21:15.357Z,5.30
2023-06-10T07:23:49.672Z,3.63
2023-06-10T07:26:23.331Z,5.80
2023-06-10T07:28:54.215Z,4.85
2023-06-10T07:31:26.993Z,7.05
2023-06-10T07:33:57.291Z,3.78
2023-06-10T07:36:50.912Z,6.53
2023-06-10T07:39:31.772Z,4.28
2023-06-10T07:44:42.130Z,2.70
2023-06-10T07:47:12.776Z,2.80
2023-06-10T07:49:43.529Z,2.33
2023-06-10T07:54:50.276Z,3.03
2023-06-10T07:57:21.073Z,3.92
2023-06-10T08:02:30.622Z,4.15
2023-06-10T08:05:00.929Z,2.13
2023-06-10T08:10:05.490Z,2.58
2023-06-10T08:12:38.745Z,3.75
2023-06-10T08:15:12.649Z,2.05
2023-06-10T08:17:45.847Z,5.68
2023-06-10T08:20:16.268Z,16.95
2023-06-10T08:22:46.484Z,7.43
2023-06-10T08:25:20.850Z,4.20
2023-06-10T08:27:53.508Z,7.97
2023-06-10T08:30:23.738Z,7.03
2023-06-10T08:32:57.041Z,7.13
2023-06-10T08:35:30.242Z,5.20
2023-06-10T08:38:12.383Z,5.55
2023-06-10T08:40:48.752Z,5.07
2023-06-10T08:43:41.321Z,6.28
2023-06-10T08:46:20.106Z,5.25
2023-06-10T08:48:57.312Z,4.63
2023-06-10T08:51:31.491Z,5.47
2023-06-10T08:54:08.778Z,6.70
2023-06-10T08:56:48.471Z,4.75
2023-06-10T08:59:20.784Z,7.25
2023-06-10T09:01:52.368Z,6.05
2023-06-10T09:04:24.250Z,5.32
2023-06-10T09:06:57.236Z,5.10
2023-06-10T09:09:29.857Z,6.68
2023-06-10T09:12:03.359Z,8.20
2023-06-10T09:14:33.979Z,8.15
2023-06-10T09:17:06.604Z,4.60
2023-06-10T09:19:44.073Z,5.80
2023-06-10T09:22:23.035Z,4.05
2023-06-10T09:24:53.808Z,6.07
2023-06-10T09:27:28.075Z,4.07
2023-06-10T09:29:59.635Z,5.90
2023-06-10T09:32:42.866Z,3.92
2023-06-10T09:35:13.884Z,4.03
2023-06-10T09:37:44.353Z,3.72
2023-06-10T09:40:17.245Z,3.30
2023-06-10T09:42:55.135Z,2.67
2023-06-10T09:45:26.041Z,5.03
2023-06-10T09:47:57.399Z,3.35
2023-06-10T09:50:27.919Z,2.53
2023-06-10T09:52:58.271Z,3.05
2023-06-10T09:55:29.455Z,3.33
2023-06-10T09:58:03.457Z,6.28
2023-06-10T10:00:36.410Z,3.63
2023-06-10T10:03:08.377Z,5.40
2023-06-10T10:05:38.955Z,5.10
2023-06-10T10:10:40.201Z,4.45
2023-06-10T10:13:13.290Z,6.60
2023-06-10T10:15:46.430Z,3.80
2023-06-10T10:18:22.126Z,3.25
2023-06-10T10:20:56.558Z,4.97
2023-06-10T10:23:34.245Z,3.38
2023-06-10T10:26:11.754Z,5.03
2023-06-10T10:28:53.869Z,5.00
2023-06-10T10:31:26.028Z,2.50
2023-06-10T10:34:00.061Z,2.42
2023-06-10T10:36:31.896Z,4.07
2023-06-10T10:39:04.869Z,7.60
2023-06-10T10:41:37.094Z,4.57
2023-06-10T10:44:12.729Z,3.08
2023-06-10T10:46:55.455Z,4.97
2023-06-10T10:49:30.032Z,3.30
2023-06-10T10:52:01.750Z,4.45
2023-06-10T10:54:36.688Z,4.20
2023-06-10T10:57:22.911Z,4.38
2023-06-10T11:00:11.946Z,2.38
2023-06-10T11:02:47.539Z,5.57
2023-06-10T11:05:20.225Z,2.25
2023-06-10T11:07:58.153Z,2.17
2023-06-10T11:10:35.594Z,2.58
2023-06-10T11:13:11.272Z,2.47
2023-06-10T11:15:49.138Z,2.75
2023-06-10T11:18:28.204Z,2.75
2023-06-10T11:21:03.960Z,4.10
2023-06-10T11:23:37.619Z,1.98
2023-06-10T11:26:18.404Z,4.53
2023-06-10T11:29:09.357Z,5.63
2023-06-10T11:31:50.059Z,2.53
2023-06-10T11:36:58.418Z,2.42
2023-06-10T11:39:28.977Z,2.33
2023-06-10T11:41:59.470Z,4.22
2023-06-10T11:44:34.837Z,2.88
2023-06-10T11:47:08.390Z,2.83
2023-06-10T11:49:38.660Z,3.20
2023-06-10T11:52:09.750Z,5.93
2023-06-10T11:54:39.990Z,8.35
2023-06-10T11:57:10.450Z,3.67
2023-06-10T11:59:42.383Z,3.92
2023-06-10T12:02:20.653Z,3.75
2023-06-10T12:04:51.323Z,2.45
2023-06-10T12:10:18.778Z,2.60
2023-06-10T12:12:54.350Z,2.33
2023-06-10T12:15:30.307Z,5.22
2023-06-10T12:18:03.875Z,4.20
2023-06-10T12:20:36.232Z,7.88
2023-06-10T12:23:14.022Z,6.75
2023-06-10T12:25:54.401Z,5.03
2023-06-10T12:28:26.034Z,3.03
2023-06-10T12:31:10.322Z,3.38
2023-06-10T12:33:44.948Z,6.05
2023-06-10T12:36:22.386Z,8.93
2023-06-10T12:38:53.931Z,10.35
2023-06-10T12:41:24.520Z,7.68
2023-06-10T12:43:56.374Z,11.05
2023-06-10T12:46:26.666Z,5.63
2023-06-10T12:48:59.668Z,6.50
2023-06-10T12:51:30.022Z,3.63
2023-06-10T12:54:00.508Z,6.15
2023-06-10T12:56:30.898Z,6.65
2023-06-10T12:59:01.236Z,5.45
2023-06-10T13:01:32.703Z,3.95
2023-06-10T13:04:06.104Z,4.07
2023-06-10T13:06:38.647Z,6.32
2023-06-10T13:09:10.967Z,5.03
2023-06-10T13:11:41.497Z,3.83
2023-06-10T13:14:11.849Z,4.53
2023-06-10T13:16:42.413Z,4.55
2023-06-10T13:19:15.283Z,2.63
2023-06-10T13:21:45.505Z,2.25
2023-06-10T13:24:15.985Z,3.85
2023-06-10T13:26:46.298Z,2.70
2023-06-10T13:29:16.847Z,4.35
2023-06-10T13:31:47.149Z,3.70
2023-06-10T13:34:20.633Z,5.30
2023-06-10T13:36:51.032Z,7.50
2023-06-10T13:39:21.318Z,4.50
2023-06-10T13:41:51.608Z,4.45
2023-06-10T13:44:21.911Z,4.25
2023-06-10T13:46:52.524Z,2.28
2023-06-10T13:49:25.627Z,2.78
2023-06-10T13:51:57.314Z,3.17
2023-06-10T13:54:28.487Z,4.07
2023-06-10T13:56:59.056Z,3.95
2023-06-10T13:59:29.557Z,4.95
2023-06-10T14:04:33.814Z,3.58
2023-06-10T14:07:04.327Z,3.53
2023-06-10T14:12:04.893Z,3.20
2023-06-10T14:14:35.368Z,3.97
2023-06-10T14:17:06.360Z,6.18
2023-06-10T14:19:39.519Z,3.47
2023-06-10T14:22:11.592Z,3.95
2023-06-10T14:24:41.860Z,4.25
2023-06-10T14:27:12.508Z,3.50
2023-06-10T14:29:42.913Z,4.13
2023-06-10T14:32:13.941Z,3.45
2023-06-10T14:34:48.340Z,3.50
2023-06-10T14:37:18.614Z,3.85
2023-06-10T14:39:48.951Z,8.55
2023-06-10T14:42:19.264Z,2.92
2023-06-10T14:44:50.765Z,3.42
2023-06-10T14:47:21.165Z,2.97
2023-06-10T14:49:55.075Z,3.28
2023-06-10T14:52:25.420Z,5.82
2023-06-10T14:54:56.012Z,3.33
2023-06-10T14:59:57.439Z,2.57
2023-06-10T15:02:28.206Z,2.67
2023-06-10T15:05:01.384Z,2.55
2023-06-10T15:07:31.709Z,2.78
2023-06-10T15:10:02.078Z,5.13
2023-06-10T15:12:32.412Z,3.92
2023-06-10T15:15:03.361Z,3.53
2023-06-10T15:17:33.853Z,2.65
2023-06-10T15:20:08.052Z,2.63
2023-06-10T15:22:38.317Z,2.42
2023-06-10T15:25:29.242Z,2.97
2023-06-10T15:28:00.327Z,2.58
2023-06-10T15:30:31.176Z,4.22
2023-06-10T15:33:01.570Z,3.13
2023-06-10T15:35:34.471Z,4.78
2023-06-10T15:38:04.889Z,2.60
2023-06-10T15:40:36.433Z,2.70
2023-06-10T15:43:06.700Z,2.50
2023-06-10T15:45:37.020Z,4.70
2023-06-10T15:48:07.997Z,5.40
2023-06-10T15:50:41.071Z,7.43
2023-06-10T15:53:11.386Z,2.90
2023-06-10T15:55:41.679Z,3.55
2023-06-10T15:58:12.533Z,3.13
2023-06-10T16:00:43.025Z,2.47
2023-06-10T16:03:13.705Z,2.65
2023-06-10T16:05:46.820Z,3.78
2023-06-10T16:08:17.859Z,2.45
2023-06-10T16:10:48.414Z,3.28
2023-06-10T16:15:49.050Z,3.93
2023-06-10T16:20:52.745Z,2.20
2023-06-10T16:23:22.995Z,2.60
2023-06-10T16:25:53.573Z,2.20
2023-06-10T16:30:54.050Z,2.63
2023-06-10T16:33:24.800Z,1.92
2023-06-10T16:35:58.084Z,4.40
2023-06-10T16:38:28.648Z,2.35
2023-06-10T16:40:59.076Z,2.03
2023-06-10T16:43:30.210Z,4.00
2023-06-10T16:46:00.714Z,6.65
2023-06-10T16:48:31.154Z,3.80
2023-06-10T16:51:04.677Z,2.40
2023-06-10T16:53:34.905Z,4.07
2023-06-10T16:56:05.471Z,3.53
2023-06-10T16:58:35.873Z,2.53
2023-06-10T17:03:40.697Z,3.13
2023-06-10T17:06:13.552Z,3.63
2023-06-10T17:08:43.840Z,4.55
2023-06-10T17:11:14.240Z,4.18
2023-06-10T17:13:45.801Z,6.65
2023-06-10T17:16:16.697Z,8.43
2023-06-10T17:18:47.012Z,6.90
2023-06-10T17:21:20.303Z,5.85
2023-06-10T17:23:51.317Z,6.43
2023-06-10T17:26:21.952Z,7.18
2023-06-10T17:28:52.608Z,4.75
2023-06-10T17:33:53.095Z,5.80
2023-06-10T17:36:26.337Z,6.15
2023-06-10T17:38:56.604Z,7.38
2023-06-10T17:41:27.477Z,8.57
2023-06-10T17:43:57.705Z,6.32
2023-06-10T17:46:28.044Z,8.27
2023-06-10T17:48:58.464Z,11.18
2023-06-10T17:51:31.507Z,11.05
2023-06-10T17:54:02.082Z,5.88
2023-06-10T17:59:02.579Z,4.70
2023-06-10T18:01:34.090Z,5.43
2023-06-10T18:04:08.166Z,5.15
2023-06-10T18:06:41.321Z,5.50
2023-06-10T18:09:12.924Z,4.65
2023-06-10T18:11:43.337Z,7.57
2023-06-10T18:14:13.885Z,8.57
2023-06-10T18:16:44.477Z,8.65
2023-06-10T18:19:16.168Z,9.00
2023-06-10T18:21:49.148Z,8.45
2023-06-10T18:24:19.700Z,11.40
2023-06-10T18:26:50.588Z,7.78
2023-06-10T18:31:50.951Z,9.70
2023-06-10T18:34:21.329Z,8.70
2023-06-10T18:36:54.260Z,9.40
2023-06-10T18:39:24.548Z,9.38
2023-06-10T18:41:54.925Z,11.70
2023-06-10T18:44:25.381Z,10.40
2023-06-10T18:46:55.669Z,10.70
2023-06-10T18:49:26.065Z,11.43
2023-06-10T18:51:59.078Z,10.32
2023-06-10T18:54:30.801Z,19.58
2023-06-10T18:57:02.217Z,29.05
2023-06-10T18:59:32.529Z,24.65
2023-06-10T19:02:03.172Z,30.17
2023-06-10T19:04:33.399Z,139.05
2023-06-10T19:07:06.601Z,18.92
2023-06-10T19:09:37.142Z,16.98
2023-06-10T19:12:08.562Z,35.47
2023-06-10T19:14:41.535Z,16.52
2023-06-10T19:17:12.167Z,31.48
2023-06-10T19:19:42.668Z,30.77
2023-06-10T19:22:15.718Z,29.08
2023-06-10T19:24:48.070Z,25.80
2023-06-10T19:27:18.545Z,28.52
2023-06-10T19:29:48.965Z,32.78
2023-06-10T19:32:19.241Z,32.33
2023-06-10T19:34:49.981Z,31.65
2023-06-10T19:39:53.607Z,36.55
2023-06-10T19:42:24.467Z,22.85
2023-06-10T19:44:54.751Z,16.85
2023-06-10T19:47:25.273Z,17.10
2023-06-10T19:49:55.532Z,20.65
2023-06-10T19:52:29.177Z,17.92
2023-06-10T19:54:59.428Z,15.43
2023-06-10T19:57:29.998Z,11.88
2023-06-10T20:00:00.499Z,10.35
2023-06-10T20:02:32.410Z,10.90
2023-06-10T20:05:02.955Z,16.70
2023-06-10T20:07:36.353Z,17.73
2023-06-10T20:10:07.289Z,17.35
2023-06-10T20:12:37.617Z,18.30
2023-06-10T20:15:08.952Z,21.90
2023-06-10T20:17:39.477Z,21.50
2023-06-10T20:20:11.042Z,20.15
2023-06-10T20:22:43.899Z,22.38
2023-06-10T20:25:15.224Z,28.05
2023-06-10T20:27:45.884Z,19.15
2023-06-10T20:30:17.977Z,18.67
2023-06-10T20:32:48.464Z,18.23
2023-06-10T20:35:18.924Z,22.90
2023-06-10T20:37:52.988Z,20.02
2023-06-10T20:40:23.245Z,13.57
2023-06-10T20:42:53.692Z,13.00
2023-06-10T20:45:26.835Z,12.65
2023-06-10T20:47:57.198Z,13.23
2023-06-10T20:50:27.459Z,13.30
2023-06-10T20:53:00.491Z,13.50
2023-06-10T20:55:31.563Z,12.02
2023-06-10T20:58:01.875Z,11.70
2023-06-10T21:00:35.208Z,11.95
2023-06-10T21:03:07.598Z,11.35
2023-06-10T21:05:40.059Z,12.23
2023-06-10T21:08:19.787Z,12.95
2023-06-10T21:10:56.612Z,13.18
2023-06-10T21:13:27.189Z,11.30
2023-06-10T21:15:57.992Z,12.52
2023-06-10T21:18:35.545Z,14.77
2023-06-10T21:21:06.375Z,12.70
2023-06-10T21:26:11.604Z,14.52
2023-06-10T21:28:43.029Z,12.55
2023-06-10T21:31:16.271Z,18.02
2023-06-10T21:33:46.842Z,13.52
2023-06-10T21:36:19.438Z,12.65
2023-06-10T21:38:52.858Z,13.50
2023-06-10T21:41:23.697Z,14.07
2023-06-10T21:46:30.110Z,13.30
2023-06-10T21:49:09.064Z,14.80
2023-06-10T21:51:39.283Z,14.60
2023-06-10T21:54:12.708Z,20.65
2023-06-10T21:56:48.044Z,16.92
2023-06-10T21:59:19.227Z,15.18
2023-06-10T22:01:55.336Z,13.40
2023-06-10T22:04:27.328Z,15.43
2023-06-10T22:06:57.891Z,13.82
2023-06-10T22:09:31.964Z,14.77
2023-06-10T22:12:02.492Z,15.70
2023-06-10T22:14:34.915Z,15.68
2023-06-10T22:17:05.504Z,15.63
2023-06-10T22:19:39.806Z,18.13
2023-06-10T22:22:12.460Z,14.43
2023-06-10T22:24:53.290Z,13.13
2023-06-10T22:27:30.082Z,13.88
2023-06-10T22:30:02.526Z,13.75
2023-06-10T22:32:33.316Z,15.85
2023-06-10T22:37:39.312Z,17.35
2023-06-10T22:40:13.914Z,14.00
2023-06-10T22:42:44.123Z,14.70
2023-06-10T22:45:20.048Z,15.10
2023-06-10T22:47:50.635Z,15.90
2023-06-10T22:50:23.413Z,13.02
2023-06-10T22:52:57.187Z,14.02
2023-06-10T22:55:30.256Z,13.60
2023-06-10T22:58:01.811Z,15.85
2023-06-10T23:00:33.762Z,14.07
2023-06-10T23:03:04.162Z,14.27
2023-06-10T23:05:37.023Z,16.40
2023-06-10T23:08:07.704Z,16.30
2023-06-10T23:10:41.655Z,20.45
2023-06-10T23:13:12.331Z,19.80
2023-06-10T23:15:44.966Z,19.50
2023-06-10T23:18:18.412Z,22.48
2023-06-10T23:20:52.262Z,19.60
2023-06-10T23:23:33.918Z,21.23
2023-06-10T23:26:08.219Z,27.40
2023-06-10T23:28:43.261Z,21.90
2023-06-10T23:31:13.738Z,22.13
2023-06-10T23:33:47.777Z,20.80
2023-06-10T23:36:18.191Z,24.08
2023-06-10T23:38:52.593Z,23.77
2023-06-10T23:41:25.933Z,30.08
2023-06-10T23:43:56.289Z,22.92
2023-06-10T23:46:26.834Z,21.40
2023-06-10T23:48:57.457Z,23.33
2023-06-10T23:51:28.134Z,22.73
2023-06-10T23:53:59.661Z,23.17
2023-06-10T23:56:32.877Z,21.50
2023-06-10T23:59:03.376Z,22.67
